Time;durP1;ratioP1;P1;durP2;ratioP2;P2;SDS_P1;SDS_P2;PMS_P1;PMS_P2;Temp;Humidity;BMP_temperature;BMP_pressure;BME280_temperature;BME280_humidity;BME280_pressure;Samples;Min_cycle;Max_cycle;Signal;HPM_P1;HPM_P2
2021/05/02 00:00:31;;;;;;;11.43;9.75;;;;;;;16.15;79.89;99391.16;5028451;28;20115;-70
2021/05/02 00:02:59;;;;;;;10.63;9.48;;;;;;;16.14;80.54;99396.53;5028119;28;20045;-70
2021/05/02 00:05:28;;;;;;;11.15;9.60;;;;;;;16.23;79.76;99388.69;5028925;28;20051;-69
2021/05/02 00:07:55;;;;;;;11.20;9.07;;;;;;;16.13;79.92;99394.88;5010480;28;20033;-70
2021/05/02 00:10:24;;;;;;;10.35;9.38;;;;;;;16.16;80.26;99392.81;5028236;28;20236;-70
2021/05/02 00:12:51;;;;;;;11.98;9.85;;;;;;;16.18;80.09;99396.13;5028047;28;20443;-69
2021/05/02 00:15:21;;;;;;;10.63;9.48;;;;;;;16.28;79.21;99400.59;5028242;28;20119;-69
2021/05/02 00:17:49;;;;;;;12.40;9.55;;;;;;;16.26;79.39;99403.38;5026927;28;20068;-70
2021/05/02 00:20:20;;;;;;;9.88;8.68;;;;;;;16.19;79.57;99400.44;5027708;28;20052;-69
2021/05/02 00:22:49;;;;;;;13.20;9.70;;;;;;;16.19;80.11;99405.72;5028039;28;20053;-69
2021/05/02 00:25:19;;;;;;;10.75;9.40;;;;;;;16.32;79.48;99407.25;5027974;28;20491;-69
2021/05/02 00:27:46;;;;;;;10.73;9.63;;;;;;;16.23;79.63;99398.38;5026948;28;20057;-69
2021/05/02 00:30:16;;;;;;;9.90;8.77;;;;;;;16.31;78.80;99400.34;5028129;28;20088;-69
2021/05/02 00:32:48;;;;;;;10.30;9.30;;;;;;;16.22;79.38;99418.56;5027070;28;20061;-69
2021/05/02 00:35:25;;;;;;;18.45;10.57;;;;;;;16.16;79.19;99405.13;5027130;28;20051;-69
2021/05/02 00:37:53;;;;;;;11.02;9.45;;;;;;;15.99;80.27;99393.44;5029176;28;20129;-70
2021/05/02 00:40:33;;;;;;;10.38;8.73;;;;;;;15.81;80.53;99393.19;5031381;28;20397;-71
2021/05/02 00:43:04;;;;;;;10.80;8.40;;;;;;;16.03;79.99;99407.97;5032230;28;20088;-71
2021/05/02 00:45:39;;;;;;;11.75;8.93;;;;;;;16.11;79.08;99395.00;5034706;28;20046;-70
2021/05/02 00:48:13;;;;;;;10.18;9.15;;;;;;;16.13;78.11;99406.22;5035093;28;20065;-71
2021/05/02 00:50:49;;;;;;;9.82;8.80;;;;;;;16.06;78.81;99410.34;5031004;28;20050;-70
2021/05/02 00:53:37;;;;;;;10.45;9.55;;;;;;;16.11;77.81;99405.53;5028207;28;20042;-70
2021/05/02 00:56:22;;;;;;;10.80;9.60;;;;;;;15.90;79.18;99402.13;5028694;28;20038;-70
2021/05/02 00:59:01;;;;;;;10.85;9.75;;;;;;;16.03;78.48;99394.00;5027962;28;20053;-69
2021/05/02 01:01:35;;;;;;;12.23;9.10;;;;;;;15.97;79.08;99393.56;5028547;28;20060;-69
2021/05/02 01:04:02;;;;;;;;;;;;;;;15.92;78.96;99405.44;5029054;28;20103;-69
2021/05/02 01:06:31;;;;;;;9.77;8.77;;;;;;;15.87;79.33;99400.59;5028652;28;20471;-69
2021/05/02 01:09:02;;;;;;;11.43;9.98;;;;;;;16.01;78.55;99409.91;5028434;28;20060;-69
2021/05/02 01:11:29;;;;;;;10.27;8.88;;;;;;;15.85;78.67;99410.38;5027604;28;20048;-69
2021/05/02 01:13:59;;;;;;;10.23;9.23;;;;;;;15.80;79.21;99411.75;5028698;28;20148;-69
2021/05/02 01:16:29;;;;;;;9.82;8.13;;;;;;;15.74;79.61;99413.09;5028553;28;20128;-69
2021/05/02 01:18:56;;;;;;;11.27;9.45;;;;;;;15.86;78.20;99401.53;5028266;28;20087;-68
2021/05/02 01:21:31;;;;;;;10.05;9.05;;;;;;;15.83;78.32;99400.97;5028139;28;20122;-69
2021/05/02 01:24:01;;;;;;;12.25;8.57;;;;;;;15.73;79.09;99408.81;5028228;28;20056;-69
2021/05/02 01:26:29;;;;;;;11.13;10.00;;;;;;;15.63;79.13;99416.63;5027866;28;20042;-69
2021/05/02 01:28:56;;;;;;;11.98;9.25;;;;;;;15.58;79.53;99413.53;5027974;28;20037;-69
2021/05/02 01:31:24;;;;;;;12.20;9.10;;;;;;;15.63;79.13;99403.50;5027321;28;20041;-69
2021/05/02 01:33:51;;;;;;;9.73;8.45;;;;;;;15.65;79.25;99424.38;5027828;28;20041;-69
2021/05/02 01:36:21;;;;;;;10.95;9.18;;;;;;;15.71;78.39;99429.09;5027852;28;20535;-69
2021/05/02 01:38:49;;;;;;;10.20;9.10;;;;;;;15.72;77.86;99428.16;5026433;28;20444;-68
2021/05/02 01:41:16;;;;;;;12.63;8.98;;;;;;;15.61;78.27;99415.91;5027751;28;20049;-68
2021/05/02 01:43:43;;;;;;;16.33;10.60;;;;;;;15.63;77.94;99421.88;5028028;28;20132;-68
2021/05/02 01:46:14;;;;;;;11.45;9.88;;;;;;;15.53;78.01;99412.25;5028098;28;20045;-68
2021/05/02 01:48:41;;;;;;;11.30;10.13;;;;;;;15.53;78.39;99409.63;5027306;28;20116;-68
2021/05/02 01:51:14;;;;;;;11.18;7.88;;;;;;;15.50;78.17;99413.34;5027752;28;20128;-68
2021/05/02 01:53:41;;;;;;;10.75;9.65;;;;;;;15.38;78.99;99414.34;5026488;28;20037;-69
2021/05/02 01:56:08;;;;;;;16.45;10.85;;;;;;;15.45;79.10;99412.91;5027716;28;20136;-71
2021/05/02 01:58:36;;;;;;;12.90;11.57;;;;;;;15.36;78.79;99417.09;5027578;28;20041;-71
2021/05/02 02:01:06;;;;;;;12.27;11.07;;;;;;;15.35;78.86;99409.38;5026982;28;20037;-71
2021/05/02 02:03:34;;;;;;;10.80;9.70;;;;;;;15.33;79.21;99409.47;5027358;28;20045;-70
2021/05/02 02:06:02;;;;;;;11.55;10.38;;;;;;;15.44;78.96;99411.19;5027249;28;20128;-70
2021/05/02 02:08:28;;;;;;;11.95;10.00;;;;;;;15.49;78.35;99411.66;5026873;28;20558;-71
2021/05/02 02:10:55;;;;;;;13.30;10.40;;;;;;;15.34;78.55;99410.31;5027501;28;20127;-70
2021/05/02 02:13:21;;;;;;;15.43;11.13;;;;;;;15.28;78.98;99411.63;5026580;28;20045;-71
2021/05/02 02:15:48;;;;;;;12.18;11.02;;;;;;;15.22;78.94;99408.69;5028065;28;20046;-70
2021/05/02 02:18:17;;;;;;;11.15;9.95;;;;;;;15.14;79.14;99402.28;5027865;28;20083;-70
2021/05/02 02:20:51;;;;;;;14.35;10.45;;;;;;;15.24;78.82;99404.16;5028207;28;20041;-71
2021/05/02 02:23:33;;;;;;;10.82;9.77;;;;;;;15.31;77.71;99405.31;5028289;28;20132;-71
2021/05/02 02:26:34;;;;;;;12.00;9.57;;;;;;;15.15;78.69;99396.06;5025632;28;20654;-71
2021/05/02 02:29:03;;;;;;;10.80;9.68;;;;;;;15.11;78.76;99404.31;5003951;28;20396;-70
2021/05/02 02:31:33;;;;;;;12.82;9.32;;;;;;;15.05;78.73;99408.28;5029152;28;20071;-70
2021/05/02 02:34:04;;;;;;;9.90;8.90;;;;;;;15.16;78.00;99408.25;5028316;28;20080;-70
2021/05/02 02:36:31;;;;;;;10.90;8.00;;;;;;;15.02;78.02;99413.81;5027155;28;20050;-70
2021/05/02 02:38:59;;;;;;;8.43;7.63;;;;;;;14.90;77.78;99413.00;5026845;28;20124;-70
2021/05/02 02:41:28;;;;;;;10.32;8.57;;;;;;;14.95;78.16;99417.88;5026665;28;20072;-70
2021/05/02 02:43:57;;;;;;;8.90;8.00;;;;;;;14.89;78.36;99413.13;5026210;28;20041;-71
2021/05/02 02:46:27;;;;;;;12.70;7.60;;;;;;;14.78;78.69;99407.91;5026710;28;20069;-71
2021/05/02 02:48:58;;;;;;;8.63;7.78;;;;;;;14.88;77.93;99414.09;5026781;28;20044;-71
2021/05/02 02:51:26;;;;;;;8.07;6.75;;;;;;;14.86;78.18;99408.09;5026858;28;20042;-72
2021/05/02 02:53:56;;;;;;;8.50;7.28;;;;;;;14.89;77.69;99410.50;5026703;28;20423;-68
2021/05/02 02:56:23;;;;;;;8.05;5.95;;;;;;;14.92;77.42;99410.25;5026611;28;20121;-71
2021/05/02 02:59:02;;;;;;;6.68;5.50;;;;;;;14.87;76.79;99408.00;5026243;28;20081;-68
2021/05/02 03:01:29;;;;;;;5.50;5.00;;;;;;;14.89;76.58;99416.56;5027508;28;20041;-69
2021/05/02 03:03:58;;;;;;;7.65;5.38;;;;;;;14.87;76.17;99417.66;5027499;28;20037;-68
2021/05/02 03:06:26;;;;;;;6.75;5.20;;;;;;;14.74;77.04;99416.97;5027011;28;20041;-69
2021/05/02 03:08:55;;;;;;;6.63;5.78;;;;;;;14.72;77.38;99414.50;5026536;28;20077;-70
2021/05/02 03:11:23;;;;;;;7.75;5.07;;;;;;;14.65;77.88;99424.66;5026104;28;20077;-71
2021/05/02 03:13:50;;;;;;;6.70;5.88;;;;;;;14.61;77.39;99428.47;5026300;28;20559;-71
2021/05/02 03:16:27;;;;;;;9.85;5.53;;;;;;;14.59;77.50;99438.22;5026402;28;20527;-69
2021/05/02 03:19:37;;;;;;;5.88;4.93;;;;;;;14.42;77.55;99433.44;5025612;28;20045;-69
2021/05/02 03:22:18;;;;;;;5.50;4.43;;;;;;;14.79;75.86;99439.25;5026063;28;20559;-69
2021/05/02 03:24:48;;;;;;;5.05;4.43;;;;;;;14.55;76.55;99438.63;5026195;28;20084;-71
2021/05/02 03:27:22;;;;;;;9.43;5.05;;;;;;;14.60;76.78;99450.41;5030681;28;20042;-71
2021/05/02 03:29:48;;;;;;;5.95;4.60;;;;;;;14.76;76.13;99451.81;5030320;28;20073;-70
2021/05/02 03:32:16;;;;;;;5.25;4.75;;;;;;;14.71;75.68;99460.03;5028994;28;20581;-70
2021/05/02 03:34:43;;;;;;;3.97;3.58;;;;;;;14.78;74.67;99452.50;5030851;28;21734;-69
2021/05/02 03:37:17;;;;;;;5.38;4.57;;;;;;;14.64;74.58;99462.28;5030651;28;20077;-70
2021/05/02 03:39:47;;;;;;;5.97;4.17;;;;;;;14.46;75.20;99466.34;5030065;28;20037;-72
2021/05/02 03:42:15;;;;;;;6.25;4.00;;;;;;;14.50;75.13;99470.44;5029974;28;20303;-71
2021/05/02 03:44:42;;;;;;;4.75;3.85;;;;;;;14.37;76.23;99461.81;5029961;28;20131;-70
2021/05/02 03:47:08;;;;;;;8.10;4.00;;;;;;;14.54;74.60;99464.00;5012260;28;20037;-71
2021/05/02 03:49:36;;;;;;;5.03;3.83;;;;;;;14.35;75.86;99468.97;5030198;28;20042;-71
2021/05/02 03:52:03;;;;;;;5.75;3.88;;;;;;;14.44;74.99;99472.69;5029725;28;20096;-71
2021/05/02 03:54:29;;;;;;;7.60;4.60;;;;;;;14.55;74.73;99470.09;5028673;28;20462;-72
2021/05/02 03:56:56;;;;;;;7.93;4.53;;;;;;;14.61;74.07;99467.81;5029910;28;20455;-73
2021/05/02 03:59:24;;;;;;;4.47;4.07;;;;;;;14.51;74.07;99479.13;5029812;28;20100;-72
2021/05/02 04:01:51;;;;;;;5.72;5.15;;;;;;;14.60;74.08;99478.44;5029462;28;20041;-71
2021/05/02 04:04:23;;;;;;;4.75;3.72;;;;;;;14.51;74.50;99479.13;5028985;28;20514;-70
2021/05/02 04:06:56;;;;;;;6.18;4.93;;;;;;;14.52;74.27;99486.88;5029624;28;20411;-68
2021/05/02 04:09:22;;;;;;;9.10;5.03;;;;;;;14.19;75.44;99489.47;5029621;28;20037;-68
2021/05/02 04:11:48;;;;;;;22.42;6.40;;;;;;;14.04;76.54;99491.47;5029037;28;20132;-69
2021/05/02 04:14:17;;;;;;;7.88;5.10;;;;;;;14.06;76.61;99493.03;5029388;28;20041;-69
2021/05/02 04:16:53;;;;;;;8.18;5.47;;;;;;;14.03;76.65;99493.25;5028850;28;20045;-69
2021/05/02 04:19:19;;;;;;;5.55;4.38;;;;;;;14.06;76.59;99495.66;5029099;28;20047;-69
2021/05/02 04:21:46;;;;;;;7.13;5.25;;;;;;;14.05;76.54;99493.97;5029300;28;20033;-69
2021/05/02 04:24:12;;;;;;;8.30;5.72;;;;;;;14.10;76.39;99497.06;5029336;28;20602;-70
2021/05/02 04:26:50;;;;;;;6.78;5.07;;;;;;;14.13;76.58;99506.50;5029665;28;20563;-69
2021/05/02 04:29:16;;;;;;;5.82;4.75;;;;;;;14.40;75.51;99520.09;5028034;28;20057;-69
2021/05/02 04:31:43;;;;;;;5.57;4.82;;;;;;;14.48;75.05;99524.78;5029189;28;20095;-69
2021/05/02 04:34:10;;;;;;;6.30;3.55;;;;;;;14.48;75.09;99531.81;5028974;28;20034;-70
2021/05/02 04:36:36;;;;;;;4.68;3.75;;;;;;;14.40;75.50;99540.25;5029081;28;20124;-70
2021/05/02 04:39:04;;;;;;;4.85;4.07;;;;;;;14.44;75.30;99541.69;5029015;28;20133;-70
2021/05/02 04:41:30;;;;;;;3.88;3.47;;;;;;;14.52;75.29;99546.38;5029501;28;20408;-70
2021/05/02 04:43:58;;;;;;;6.50;3.58;;;;;;;14.42;75.77;99552.28;5032087;28;20049;-70
2021/05/02 04:46:24;;;;;;;4.55;3.42;;;;;;;14.45;75.71;99553.00;5031684;28;20069;-70
2021/05/02 04:48:51;;;;;;;4.95;3.88;;;;;;;14.45;75.54;99556.47;5030910;28;20516;-68
2021/05/02 04:51:19;;;;;;;6.38;3.33;;;;;;;14.82;75.99;99559.72;5028771;28;20048;-68
2021/05/02 04:53:46;;;;;;;3.75;3.38;;;;;;;14.85;76.19;99567.34;5030936;28;20036;-69
2021/05/02 04:56:14;;;;;;;3.47;3.17;;;;;;;15.26;75.87;99572.91;5028508;28;20046;-68
2021/05/02 04:58:41;;;;;;;5.28;3.60;;;;;;;15.62;73.29;99588.31;5028316;28;20088;-67
2021/05/02 05:01:09;;;;;;;4.75;3.08;;;;;;;15.86;73.56;99585.50;5028332;28;20045;-67
2021/05/02 05:03:35;;;;;;;3.63;2.70;;;;;;;16.26;70.57;99584.00;5027880;28;20545;-68
2021/05/02 05:06:02;;;;;;;12.60;3.75;;;;;;;16.48;70.12;99589.09;5028679;28;20129;-68
2021/05/02 05:08:28;;;;;;;8.75;3.88;;;;;;;16.59;70.90;99589.03;5010796;28;20050;-71
2021/05/02 05:10:55;;;;;;;4.32;2.55;;;;;;;16.87;68.60;99584.88;5033233;28;20471;-70
2021/05/02 05:13:21;;;;;;;3.97;2.35;;;;;;;17.35;67.86;99596.53;5039588;28;20063;-71
2021/05/02 05:15:48;;;;;;;6.35;2.30;;;;;;;17.58;66.43;99595.34;5042674;28;20480;-70
2021/05/02 05:18:14;;;;;;;3.42;2.40;;;;;;;17.67;64.56;99604.19;5040418;28;20447;-72
2021/05/02 05:20:41;;;;;;;2.25;1.17;;;;;;;17.97;62.73;99592.72;5034142;28;20041;-71
2021/05/02 05:23:07;;;;;;;2.45;1.17;;;;;;;17.92;60.75;99593.13;5034266;28;20053;-72
2021/05/02 05:25:34;;;;;;;0.90;0.90;;;;;;;18.20;59.24;99601.16;5033278;28;20073;-74
2021/05/02 05:28:00;;;;;;;1.05;0.93;;;;;;;18.51;57.92;99596.53;5033955;28;20083;-70
2021/05/02 05:30:27;;;;;;;3.55;1.27;;;;;;;18.69;56.48;99600.09;5016198;28;20048;-67
2021/05/02 05:33:03;;;;;;;2.72;1.27;;;;;;;18.67;55.06;99607.31;5033348;28;20052;-72
2021/05/02 05:35:30;;;;;;;1.05;0.70;;;;;;;18.87;55.28;99607.28;5036890;28;20392;-72
2021/05/02 05:37:57;;;;;;;1.30;1.17;;;;;;;19.24;55.31;99615.16;5016883;28;20128;-72
2021/05/02 05:40:24;;;;;;;1.20;0.90;;;;;;;19.60;55.17;99616.94;5030007;28;20045;-72
2021/05/02 05:42:51;;;;;;;3.30;1.20;;;;;;;19.97;54.39;99617.75;5037407;28;20041;-70
2021/05/02 05:45:19;;;;;;;1.63;1.10;;;;;;;20.19;54.34;99612.00;5035670;28;20072;-71
2021/05/02 05:47:51;;;;;;;2.08;1.33;;;;;;;20.52;53.76;99614.91;5034122;28;20483;-72
2021/05/02 05:50:17;;;;;;;1.90;1.45;;;;;;;20.78;52.81;99628.16;5035574;28;20049;-72
2021/05/02 05:52:47;;;;;;;2.58;1.38;;;;;;;20.96;52.36;99628.06;5033694;28;20033;-72
2021/05/02 05:55:14;;;;;;;3.72;1.50;;;;;;;21.30;51.48;99626.22;5036618;28;20503;-76
2021/05/02 05:57:41;;;;;;;5.72;1.42;;;;;;;21.67;51.36;99622.34;5041416;28;20125;-70
2021/05/02 06:00:09;;;;;;;8.43;2.40;;;;;;;21.64;50.97;99630.66;5039593;28;20455;-71
2021/05/02 06:02:38;;;;;;;10.90;2.88;;;;;;;22.14;50.63;99619.13;5039048;28;20080;-71
2021/05/02 06:05:06;;;;;;;2.47;2.10;;;;;;;22.31;50.58;99622.59;5037234;28;20408;-70
2021/05/02 06:07:32;;;;;;;4.20;2.70;;;;;;;22.60;49.72;99638.81;5038109;28;20033;-70
2021/05/02 06:09:59;;;;;;;3.17;2.10;;;;;;;22.90;49.60;99637.28;5035224;28;20378;-72
2021/05/02 06:12:25;;;;;;;4.95;2.15;;;;;;;23.25;48.55;99638.66;5035042;28;20061;-69
2021/05/02 06:14:52;;;;;;;3.47;2.35;;;;;;;23.24;47.38;99646.81;5033475;28;20416;-72
2021/05/02 06:17:18;;;;;;;6.78;4.05;;;;;;;22.36;48.60;99646.81;5040580;28;20463;-70
2021/05/02 06:19:45;;;;;;;4.82;2.97;;;;;;;22.90;49.15;99645.25;5037554;28;20381;-71
2021/05/02 06:22:11;;;;;;;4.55;3.20;;;;;;;22.82;49.17;99653.22;5037230;28;20132;-71
2021/05/02 06:24:38;;;;;;;7.22;2.85;;;;;;;22.74;48.37;99643.47;5032274;28;20108;-71
2021/05/02 06:27:05;;;;;;;3.22;2.92;;;;;;;22.59;48.36;99654.94;5034200;28;20045;-73
2021/05/02 06:29:32;;;;;;;3.42;2.80;;;;;;;23.24;48.32;99646.81;5034449;28;20124;-69
2021/05/02 06:31:58;;;;;;;5.22;4.07;;;;;;;22.17;49.72;99658.63;5032959;28;20084;-70
2021/05/02 06:34:25;;;;;;;4.22;3.28;;;;;;;23.82;48.13;99656.19;5035142;28;20047;-72
2021/05/02 06:36:58;;;;;;;5.93;3.80;;;;;;;23.78;46.80;99660.19;5041366;28;20128;-71
2021/05/02 06:39:28;;;;;;;5.18;4.15;;;;;;;22.63;48.68;99658.91;5039224;28;20459;-73
2021/05/02 06:41:55;;;;;;;4.85;3.35;;;;;;;22.35;48.67;99667.22;5037790;28;20099;-73
2021/05/02 06:44:22;;;;;;;3.65;3.20;;;;;;;23.85;46.81;99666.44;5036131;28;20477;-73
2021/05/02 06:46:49;;;;;;;7.43;5.18;;;;;;;23.49;45.61;99666.97;5035937;28;20428;-74
2021/05/02 06:49:15;;;;;;;4.93;4.38;;;;;;;23.12;47.37;99669.47;5033199;28;20129;-76
2021/05/02 06:51:42;;;;;;;3.88;3.50;;;;;;;24.26;46.20;99682.97;5032447;28;20112;-76
2021/05/02 06:54:09;;;;;;;4.20;3.80;;;;;;;25.28;45.07;99675.34;5026690;28;20091;-74
2021/05/02 06:56:36;;;;;;;7.00;3.75;;;;;;;23.99;45.52;99687.00;5023393;28;20045;-75
2021/05/02 06:59:03;;;;;;;6.45;4.25;;;;;;;24.23;45.67;99695.81;5029946;28;20296;-76
2021/05/02 07:01:31;;;;;;;5.85;4.28;;;;;;;25.02;44.56;99696.28;5031999;28;20103;-75
2021/05/02 07:03:59;;;;;;;6.20;4.43;;;;;;;24.55;45.46;99698.25;5032438;28;20492;-77
2021/05/02 07:06:33;;;;;;;7.68;5.60;;;;;;;24.12;46.30;99710.38;5032278;28;20455;-75
2021/05/02 07:09:01;;;;;;;6.40;5.35;;;;;;;23.68;47.59;99707.47;5032743;28;20535;-77
2021/05/02 07:11:28;;;;;;;4.57;4.15;;;;;;;24.37;46.77;99707.56;5029246;28;20102;-75
2021/05/02 07:13:54;;;;;;;3.63;3.30;;;;;;;25.54;44.86;99712.22;5032313;28;20120;-76
2021/05/02 07:16:22;;;;;;;7.30;4.47;;;;;;;24.96;41.40;99708.50;5033070;28;20095;-78
2021/05/02 07:18:50;;;;;;;3.70;3.30;;;;;;;25.23;41.39;99711.59;5029157;28;20040;-75
2021/05/02 07:21:19;;;;;;;3.63;3.00;;;;;;;26.46;39.92;99708.91;5033459;28;20435;-75
2021/05/02 07:23:50;;;;;;;3.22;2.40;;;;;;;27.37;37.33;99706.25;5039472;28;20059;-77
2021/05/02 07:26:18;;;;;;;5.03;2.92;;;;;;;26.51;37.50;99703.81;5044676;28;20098;-74
2021/05/02 07:28:45;;;;;;;7.13;2.15;;;;;;;27.13;37.71;99710.28;5037460;28;20481;-74
2021/05/02 07:31:12;;;;;;;3.13;1.92;;;;;;;27.95;34.87;99704.03;5040998;28;20037;-74
2021/05/02 07:33:40;;;;;;;2.72;2.03;;;;;;;27.91;33.89;99705.47;5035455;28;20515;-76
2021/05/02 07:36:07;;;;;;;2.90;1.50;;;;;;;28.31;33.05;99705.53;5030130;28;20133;-76
2021/05/02 07:38:35;;;;;;;3.75;1.50;;;;;;;29.08;32.46;99694.19;5033767;28;20124;-74
2021/05/02 07:41:02;;;;;;;4.03;0.93;;;;;;;29.18;28.60;99704.50;5032169;28;20050;-75
2021/05/02 07:43:29;;;;;;;8.30;1.00;;;;;;;29.85;26.86;99710.47;5028723;28;20096;-73
2021/05/02 07:45:55;;;;;;;3.90;0.75;;;;;;;30.32;25.74;99714.53;5032456;28;20404;-74
2021/05/02 07:48:22;;;;;;;6.93;0.90;;;;;;;30.65;25.38;99719.63;5025285;28;20037;-76
2021/05/02 07:50:49;;;;;;;3.90;0.60;;;;;;;30.66;23.80;99720.47;5028878;28;20053;-76
2021/05/02 07:53:18;;;;;;;4.10;0.93;;;;;;;30.70;24.17;99710.94;5025159;28;20046;-75
2021/05/02 07:55:45;;;;;;;13.18;1.00;;;;;;;31.23;22.92;99718.50;5032100;28;20038;-74
2021/05/02 07:58:11;;;;;;;1.95;0.95;;;;;;;31.28;21.80;99715.97;5024397;28;20520;-78
2021/05/02 08:00:38;;;;;;;2.25;0.75;;;;;;;31.08;22.27;99718.84;5032776;28;20386;-79
2021/05/02 08:03:04;;;;;;;3.08;1.02;;;;;;;31.37;21.95;99725.38;5027541;28;20038;-77
2021/05/02 08:05:31;;;;;;;6.00;1.50;;;;;;;31.87;21.28;99729.78;5028740;28;20080;-71
2021/05/02 08:07:58;;;;;;;3.60;1.00;;;;;;;32.07;21.34;99728.47;5025879;28;20103;-71
2021/05/02 08:10:25;;;;;;;3.08;0.95;;;;;;;32.24;20.76;99727.81;5023598;28;20050;-72
2021/05/02 08:12:53;;;;;;;3.05;1.00;;;;;;;32.25;19.87;99730.25;5029598;28;20048;-71
2021/05/02 08:15:19;;;;;;;2.08;0.57;;;;;;;31.93;19.30;99731.56;5026278;28;20049;-70
2021/05/02 08:17:46;;;;;;;3.13;1.08;;;;;;;32.07;19.14;99733.03;5040960;28;20033;-75
2021/05/02 08:20:13;;;;;;;3.53;1.35;;;;;;;31.97;20.03;99732.75;5041046;28;20670;-76
2021/05/02 08:22:40;;;;;;;10.32;1.73;;;;;;;32.56;19.46;99739.97;5033476;28;20076;-73
2021/05/02 08:25:09;;;;;;;6.25;0.85;;;;;;;32.86;19.21;99736.34;5029693;28;20050;-74
2021/05/02 08:27:36;;;;;;;2.55;0.70;;;;;;;32.64;18.44;99733.41;5031339;28;20084;-72
2021/05/02 08:30:04;;;;;;;3.47;0.52;;;;;;;32.71;18.85;99742.22;5035246;28;20069;-68
2021/05/02 08:32:31;;;;;;;2.35;1.67;;;;;;;32.31;18.69;99745.50;5034936;28;20051;-70
2021/05/02 08:34:58;;;;;;;5.20;0.70;;;;;;;32.67;19.45;99734.81;5029399;28;20095;-79
2021/05/02 08:37:25;;;;;;;8.77;3.13;;;;;;;31.99;19.54;99731.47;5029093;28;20082;-71
2021/05/02 08:39:58;;;;;;;;;;;;;;;32.00;18.71;99733.09;5026342;28;20041;-72
2021/05/02 08:42:25;;;;;;;13.50;7.28;;;;;;;31.75;18.92;99730.53;5034110;28;19983;-72
2021/05/02 08:44:52;;;;;;;9.55;6.47;;;;;;;31.59;18.56;99733.84;5034952;28;20492;-76
2021/05/02 08:47:19;;;;;;;7.78;2.55;;;;;;;31.73;19.28;99739.88;5036695;28;20069;-76
2021/05/02 08:49:46;;;;;;;1.63;1.00;;;;;;;32.04;19.56;99730.78;5034433;28;20053;-74
2021/05/02 08:52:12;;;;;;;4.60;2.55;;;;;;;31.65;19.29;99730.25;5038412;28;20068;-75
2021/05/02 08:54:40;;;;;;;6.05;1.70;;;;;;;31.22;19.40;99733.81;5048134;28;20053;-76
2021/05/02 08:57:06;;;;;;;4.38;1.20;;;;;;;31.03;19.24;99741.03;5047283;28;20523;-72
2021/05/02 08:59:33;;;;;;;2.80;1.55;;;;;;;31.25;18.70;99741.47;5043510;28;20104;-77
2021/05/02 09:02:00;;;;;;;11.90;2.03;;;;;;;31.10;19.30;99753.59;5032553;28;20500;-75
2021/05/02 09:04:26;;;;;;;3.08;1.30;;;;;;;30.87;19.06;99738.94;5030465;28;20038;-73
2021/05/02 09:06:53;;;;;;;2.63;0.85;;;;;;;30.94;18.95;99749.63;5023587;28;20056;-74
2021/05/02 09:09:20;;;;;;;4.72;1.20;;;;;;;30.73;18.99;99743.59;5029340;28;20046;-73
2021/05/02 09:11:49;;;;;;;9.18;2.58;;;;;;;30.61;20.12;99749.88;5029630;28;20037;-73
2021/05/02 09:14:23;;;;;;;4.15;2.10;;;;;;;30.20;20.59;99754.72;5030564;28;20080;-74
2021/05/02 09:16:51;;;;;;;2.03;0.90;;;;;;;30.30;20.76;99759.63;5023766;28;20065;-74
2021/05/02 09:19:19;;;;;;;5.60;1.50;;;;;;;30.06;20.65;99753.13;5034629;28;20033;-72
2021/05/02 09:21:45;;;;;;;5.80;3.80;;;;;;;29.89;20.48;99754.66;5031366;28;20064;-74
2021/05/02 09:24:26;;;;;;;4.25;0.95;;;;;;;29.42;21.79;99772.78;5036239;28;20037;-74
2021/05/02 09:27:13;;;;;;;3.30;0.80;;;;;;;29.16;20.31;99753.00;5039769;28;20053;-73
2021/05/02 09:29:43;;;;;;;3.17;0.95;;;;;;;28.91;20.39;99760.84;5027245;28;20038;-73
2021/05/02 09:32:11;;;;;;;9.50;1.65;;;;;;;28.70;20.95;99756.53;5027642;28;20042;-72
2021/05/02 09:34:47;;;;;;;2.15;1.20;;;;;;;28.50;21.66;99773.63;5032914;28;20046;-73
2021/05/02 09:37:14;;;;;;;2.90;1.30;;;;;;;28.36;22.34;99772.81;5032328;28;20112;-75
2021/05/02 09:39:57;;;;;;;3.33;1.23;;;;;;;27.96;22.82;99795.94;5040687;28;20036;-74
2021/05/02 09:42:35;;;;;;;3.00;1.23;;;;;;;27.46;22.39;99780.03;5040537;28;20158;-77
2021/05/02 09:45:07;;;;;;;4.93;1.25;;;;;;;27.57;23.02;99790.16;5028020;28;20042;-79
2021/05/02 09:47:42;;;;;;;4.47;1.05;;;;;;;27.49;23.75;99784.19;5040655;28;20038;-80
2021/05/02 09:50:17;;;;;;;9.88;3.95;;;;;;;27.39;22.96;99789.88;5029589;28;20041;-78
2021/05/02 09:52:53;;;;;;;9.43;6.20;;;;;;;27.17;23.43;99783.78;5028964;28;20063;-74
2021/05/02 09:55:20;;;;;;;7.70;3.05;;;;;;;27.01;23.64;99795.56;5039717;28;20057;-74
2021/05/02 09:57:56;;;;;;;7.82;4.30;;;;;;;26.89;23.34;99800.59;5032213;28;20058;-72
2021/05/02 10:00:27;;;;;;;8.68;5.70;;;;;;;26.51;24.28;99789.34;5035859;28;20057;-75
2021/05/02 10:02:55;;;;;;;6.60;2.05;;;;;;;26.53;24.33;99781.97;5031213;28;20049;-73
2021/05/02 10:05:22;;;;;;;6.80;2.05;;;;;;;26.43;24.98;99789.50;5032053;28;20369;-73
2021/05/02 10:07:50;;;;;;;8.82;2.03;;;;;;;26.52;25.03;99791.00;5032274;28;20126;-72
2021/05/02 10:10:17;;;;;;;4.93;1.60;;;;;;;26.45;24.77;99797.31;5032638;28;20046;-70
2021/05/02 10:12:51;;;;;;;3.75;0.93;;;;;;;26.42;24.10;99790.50;5039982;28;20054;-72
2021/05/02 10:15:22;;;;;;;6.97;1.33;;;;;;;26.19;23.70;99787.97;5045075;28;20503;-72
2021/05/02 10:17:52;;;;;;;3.22;1.45;;;;;;;26.11;23.95;99790.75;5043758;28;20134;-69
2021/05/02 10:20:21;;;;;;;6.78;1.48;;;;;;;25.89;23.85;99784.56;5043841;28;20488;-72
2021/05/02 10:22:49;;;;;;;2.45;1.58;;;;;;;25.92;24.00;99789.50;5046469;28;20043;-70
2021/05/02 10:25:15;;;;;;;2.65;1.30;;;;;;;25.81;24.31;99790.81;5040221;28;20092;-72
2021/05/02 10:27:51;;;;;;;5.32;1.65;;;;;;;25.76;22.90;99787.03;5043200;28;20047;-68
2021/05/02 10:30:32;;;;;;;4.30;1.95;;;;;;;25.67;24.38;99786.25;5043760;28;20415;-73
2021/05/02 10:33:10;;;;;;;9.05;1.75;;;;;;;25.66;24.95;99797.97;5038133;28;20475;-73
2021/05/02 10:35:54;;;;;;;5.95;2.53;;;;;;;25.56;24.73;99800.91;5026553;28;20044;-73
2021/05/02 10:38:22;;;;;;;2.92;2.08;;;;;;;25.51;24.95;99795.28;5027963;28;20048;-71
2021/05/02 10:40:49;;;;;;;7.40;2.03;;;;;;;25.52;25.44;99804.97;5032169;28;20075;-73
2021/05/02 10:43:30;;;;;;;4.80;1.95;;;;;;;25.52;25.56;99804.97;5032679;28;20046;-72
2021/05/02 10:45:57;;;;;;;2.17;1.33;;;;;;;25.57;24.96;99793.75;5031583;28;20041;-72
2021/05/02 10:48:24;;;;;;;3.70;2.05;;;;;;;25.55;25.47;99788.59;5031805;28;20504;-73
2021/05/02 10:50:54;;;;;;;13.02;2.88;;;;;;;25.37;25.36;99795.31;5029365;28;20103;-72
2021/05/02 10:53:23;;;;;;;5.53;2.53;;;;;;;25.45;25.45;99795.22;5031982;28;20064;-80
2021/05/02 10:56:03;;;;;;;5.80;2.50;;;;;;;25.35;24.77;99790.13;5032319;28;20558;-78
2021/05/02 10:58:56;;;;;;;9.07;2.13;;;;;;;25.37;25.84;99784.63;5035082;28;20467;-69
2021/05/02 11:01:44;;;;;;;6.70;1.50;;;;;;;25.29;24.98;99796.22;5029660;28;20488;-70
2021/05/02 11:04:15;;;;;;;5.53;1.60;;;;;;;25.27;24.45;99792.91;5034375;28;20049;-73
2021/05/02 11:06:43;;;;;;;8.05;2.10;;;;;;;25.28;24.86;99798.06;5044037;28;20570;-69
2021/05/02 11:09:11;;;;;;;5.45;1.90;;;;;;;25.16;25.13;99799.53;5040959;28;20063;-71
2021/05/02 11:11:42;;;;;;;10.35;3.10;;;;;;;25.16;25.12;99796.84;5043646;28;20068;-72
2021/05/02 11:16:37;;;;;;;7.60;1.55;;;;;;;25.15;25.03;99808.53;5045611;28;20479;-72
2021/05/02 11:19:08;;;;;;;2.20;0.88;;;;;;;24.97;24.26;99806.16;5038929;28;20107;-72
2021/05/02 11:24:17;;;;;;;5.43;1.83;;;;;;;24.88;25.28;99807.25;5031384;28;20499;-73
2021/05/02 11:29:35;;;;;;;5.78;1.52;;;;;;;24.93;25.72;99812.00;5029430;28;20373;-73
2021/05/02 11:32:03;;;;;;;5.10;1.50;;;;;;;24.96;25.85;99806.34;5030183;28;20046;-73
2021/05/02 11:34:53;;;;;;;4.07;1.58;;;;;;;24.98;25.87;99814.97;5036292;28;20062;-73
2021/05/02 11:37:38;;;;;;;6.43;1.90;;;;;;;24.84;24.66;99808.59;5031567;28;20373;-72
2021/05/02 11:40:20;;;;;;;2.45;1.15;;;;;;;24.86;24.94;99811.91;5035911;28;20045;-73
2021/05/02 11:42:51;;;;;;;2.70;1.30;;;;;;;24.89;25.02;99811.56;5030255;28;20056;-71
2021/05/02 11:45:19;;;;;;;5.93;1.80;;;;;;;24.64;24.79;99807.44;5031166;28;20107;-72
2021/05/02 11:47:47;;;;;;;2.78;1.20;;;;;;;24.64;24.66;99802.09;5034834;28;20496;-72
2021/05/02 11:50:15;;;;;;;6.43;1.55;;;;;;;24.70;24.93;99814.72;5035396;28;20128;-72